Nago, Japan
Current Conditions -  °F | °C
As of 11:58 PM on Friday 24 Oct 2014 (Local Time) from RODN Reporting Station
Few Clouds Few Clouds  
Wind Chill: 68°   Ceiling: Unl
Heat Index: 68°   Visibility: 10mi
Dew Point: 66°   Wind: 5mph
Humidity: 93%   Direction: 40°NE
Pressure: 30.04"   Gusts: NA
Location:  26.59°N, 127.99°E
Report Text: RODN 241458Z AUTO 04004KT 10SM FEW130 20/19 A3004 RMK AO2 SLP178 T02010190 402680163 58000 $
Loading
Personal Weather Stations






























Interactive Weather Map
Tropical Storm Tracking
New forecast layout! Learn more

10-Day Weather Forecast

Advertisements
Track Severe Weather on mobile